createdAt,value
2023-01-31T00:04:18.363Z,101626.75
2023-01-31T00:09:20.238Z,101621.91
2023-01-31T00:14:21.782Z,101624.88
2023-01-31T00:19:23.310Z,101632.72
2023-01-31T00:24:27.058Z,101644.41
2023-01-31T00:29:31.040Z,101643.56
2023-01-31T00:34:32.601Z,101643.84
2023-01-31T00:39:34.643Z,101656.16
2023-01-31T00:44:36.566Z,101654.94
2023-01-31T00:49:38.403Z,101656.06
2023-01-31T00:54:40.074Z,101635.72
2023-01-31T00:59:41.674Z,101612.09
2023-01-31T01:04:43.445Z,101603.84
2023-01-31T01:09:47.054Z,101597.94
2023-01-31T01:14:49.334Z,101580.84
2023-01-31T01:19:50.933Z,101569.50
2023-01-31T01:24:52.646Z,101548.41
2023-01-31T01:29:54.265Z,101537.34
2023-01-31T01:34:58.360Z,101536.91
2023-01-31T01:39:59.887Z,101519.28
2023-01-31T01:45:05.104Z,101510.31
2023-01-31T01:50:16.475Z,101508.75
2023-01-31T01:55:36.575Z,101485.31
2023-01-31T02:00:46.360Z,101474.50
2023-01-31T02:06:01.895Z,101448.66
2023-01-31T02:11:10.097Z,101440.16
2023-01-31T02:16:12.844Z,101432.59
2023-01-31T02:21:52.543Z,101430.03
2023-01-31T02:27:18.586Z,101434.88
2023-01-31T02:32:39.381Z,101444.66
2023-01-31T02:38:08.803Z,101438.13
2023-01-31T02:43:22.937Z,101438.69
2023-01-31T02:48:43.682Z,101443.25
2023-01-31T02:53:57.066Z,101428.88
2023-01-31T02:59:12.835Z,101430.69
2023-01-31T03:04:14.858Z,101425.41
2023-01-31T03:09:25.709Z,101434.06
2023-01-31T03:14:36.417Z,101440.06
2023-01-31T03:19:59.072Z,101445.19
2023-01-31T03:25:05.517Z,101453.81
2023-01-31T03:30:18.794Z,101458.81
2023-01-31T03:35:24.115Z,101453.78
2023-01-31T03:40:41.993Z,101472.44
2023-01-31T03:45:55.861Z,101478.69
2023-01-31T03:51:01.593Z,101497.47
2023-01-31T03:56:09.775Z,101498.44
2023-01-31T04:01:12.921Z,101511.25
2023-01-31T04:06:15.021Z,101512.56
2023-01-31T04:11:21.579Z,101521.97
2023-01-31T04:16:23.601Z,101529.09
2023-01-31T04:21:25.256Z,101520.00
2023-01-31T04:26:26.921Z,101507.94
2023-01-31T04:31:28.603Z,101509.03
2023-01-31T04:36:30.361Z,101493.56
2023-01-31T04:41:32.080Z,101488.16
2023-01-31T04:46:33.706Z,101480.63
2023-01-31T04:51:35.292Z,101470.78
2023-01-31T04:56:36.827Z,101452.84
2023-01-31T05:01:38.381Z,101443.28
2023-01-31T05:06:39.958Z,101439.84
2023-01-31T05:11:41.527Z,101418.25
2023-01-31T05:16:47.299Z,101402.75
2023-01-31T05:22:00.628Z,101401.03
2023-01-31T05:27:02.690Z,101393.16
2023-01-31T05:32:05.990Z,101380.41
2023-01-31T05:37:07.573Z,101373.78
2023-01-31T05:42:09.112Z,101377.03
2023-01-31T05:47:10.879Z,101402.47
2023-01-31T05:52:12.495Z,101401.47
2023-01-31T05:57:15.294Z,101420.09
2023-01-31T06:02:17.022Z,101426.31
2023-01-31T06:07:18.655Z,101440.09
2023-01-31T06:12:20.219Z,101454.03
2023-01-31T06:17:24.043Z,101458.84
2023-01-31T06:22:27.760Z,101457.81
2023-01-31T06:27:33.035Z,101471.91
2023-01-31T06:32:34.645Z,101475.03
2023-01-31T06:37:36.192Z,101478.31
2023-01-31T06:42:37.773Z,101475.75
2023-01-31T06:47:39.555Z,101481.72
2023-01-31T06:52:41.627Z,101496.34
2023-01-31T06:57:47.452Z,101513.84
2023-01-31T07:02:49.254Z,101523.81
2023-01-31T07:07:53.861Z,101535.59
2023-01-31T07:12:55.536Z,101532.34
2023-01-31T07:17:59.438Z,101542.16
2023-01-31T07:23:01.212Z,101556.50
2023-01-31T07:28:03.437Z,101550.84
2023-01-31T07:33:05.648Z,101559.78
2023-01-31T07:38:07.835Z,101568.34
2023-01-31T07:43:10.487Z,101583.00
2023-01-31T07:48:13.226Z,101587.09
2023-01-31T07:53:14.763Z,101584.81
2023-01-31T07:58:16.763Z,101558.66
2023-01-31T08:03:34.565Z,101541.91
2023-01-31T08:08:37.857Z,101531.53
2023-01-31T08:13:39.933Z,101522.28
2023-01-31T08:18:41.705Z,101547.00
2023-01-31T08:23:44.669Z,101560.69
2023-01-31T08:28:48.286Z,101565.19
2023-01-31T08:33:53.420Z,101574.47
2023-01-31T08:38:55.718Z,101593.38
2023-01-31T08:43:59.017Z,101606.31
2023-01-31T08:49:03.000Z,101617.78
2023-01-31T08:54:04.671Z,101634.00
2023-01-31T08:59:07.357Z,101640.91
2023-01-31T09:04:13.386Z,101651.22
2023-01-31T09:09:15.052Z,101669.59
2023-01-31T09:14:16.557Z,101697.63
2023-01-31T09:19:18.200Z,101723.09
2023-01-31T09:25:06.235Z,101767.03
2023-01-31T09:30:10.411Z,101794.13
2023-01-31T09:35:16.584Z,101801.69
2023-01-31T09:40:26.588Z,101812.66
2023-01-31T09:45:43.184Z,101824.13
2023-01-31T09:50:51.940Z,101822.09
2023-01-31T09:56:07.314Z,101829.34
2023-01-31T10:01:16.003Z,101839.81
2023-01-31T10:06:30.607Z,101851.50
2023-01-31T10:11:41.006Z,101846.53
2023-01-31T10:16:50.379Z,101865.94
2023-01-31T10:21:57.573Z,101858.44
2023-01-31T10:27:15.980Z,101810.28
2023-01-31T10:32:55.193Z,101789.56
2023-01-31T10:38:32.252Z,101763.53
2023-01-31T10:43:42.065Z,101743.78
2023-01-31T10:48:47.313Z,101712.41
2023-01-31T10:54:07.036Z,101682.06
2023-01-31T10:59:19.326Z,101646.16
2023-01-31T11:04:25.492Z,101623.69
2023-01-31T11:09:49.775Z,101593.16
2023-01-31T11:15:14.242Z,101538.28
2023-01-31T11:20:21.480Z,101527.06
2023-01-31T11:25:25.373Z,101501.06
2023-01-31T11:30:35.087Z,101474.88
2023-01-31T11:35:36.723Z,101424.19
2023-01-31T11:40:40.247Z,101388.88
2023-01-31T11:45:54.074Z,101384.09
2023-01-31T11:50:58.388Z,101358.66
2023-01-31T11:56:16.584Z,101332.16
2023-01-31T12:01:23.124Z,101292.63
2023-01-31T12:06:27.692Z,101272.78
2023-01-31T12:11:31.932Z,101236.97
2023-01-31T12:16:35.414Z,101249.81
2023-01-31T12:22:08.081Z,101254.41
2023-01-31T12:27:37.117Z,101236.09
2023-01-31T12:32:54.512Z,101206.47
2023-01-31T12:38:07.033Z,101135.56
2023-01-31T12:43:45.881Z,101098.59
2023-01-31T12:48:47.876Z,101065.88
2023-01-31T12:54:04.904Z,101034.09
2023-01-31T12:59:48.389Z,101050.41
2023-01-31T13:04:59.616Z,101042.19
2023-01-31T13:10:05.354Z,100995.53
2023-01-31T13:15:30.361Z,100958.00
2023-01-31T13:20:38.833Z,100990.09
2023-01-31T13:26:14.893Z,100964.25
2023-01-31T13:31:24.847Z,100999.56
2023-01-31T13:36:35.461Z,100995.69
2023-01-31T13:41:37.196Z,100958.38
2023-01-31T13:46:56.184Z,100952.34
2023-01-31T13:52:00.424Z,100962.72
2023-01-31T13:57:03.083Z,100969.47
2023-01-31T14:02:17.139Z,100972.47
2023-01-31T14:07:21.143Z,100965.31
2023-01-31T14:12:22.848Z,100945.97
2023-01-31T14:17:33.074Z,100935.00
2023-01-31T14:22:41.327Z,100936.38
2023-01-31T14:27:42.889Z,100946.63
2023-01-31T14:32:48.683Z,100934.03
2023-01-31T14:38:08.297Z,100964.75
2023-01-31T14:43:32.016Z,100970.16
2023-01-31T14:48:45.682Z,100962.94
2023-01-31T14:54:35.302Z,100953.53
2023-01-31T14:59:59.788Z,100939.72
2023-01-31T15:05:17.373Z,100943.84
2023-01-31T15:10:58.177Z,100939.06
2023-01-31T15:16:02.747Z,100947.22
2023-01-31T15:21:07.517Z,100965.91
2023-01-31T15:26:11.041Z,100987.00
2023-01-31T15:31:41.270Z,100994.63
2023-01-31T15:37:04.566Z,101009.50
2023-01-31T15:42:26.949Z,101019.28
2023-01-31T15:47:28.512Z,101030.53
2023-01-31T15:52:34.404Z,101041.75
2023-01-31T15:57:44.514Z,101043.47
2023-01-31T16:02:47.224Z,101029.56
2023-01-31T16:07:49.559Z,101004.16
2023-01-31T16:12:53.196Z,101016.91
2023-01-31T16:18:00.302Z,101018.59
2023-01-31T16:23:02.646Z,101028.78
2023-01-31T16:28:06.761Z,101048.13
2023-01-31T16:33:16.833Z,101058.81
2023-01-31T16:38:24.031Z,101046.28
2023-01-31T16:43:31.823Z,101054.22
2023-01-31T16:48:39.020Z,101054.22
2023-01-31T16:53:41.637Z,101059.84
2023-01-31T16:58:49.310Z,101055.25
2023-01-31T17:04:09.026Z,101064.06
2023-01-31T17:09:14.505Z,101055.09
2023-01-31T17:14:16.021Z,101066.78
2023-01-31T17:19:17.700Z,101068.66
2023-01-31T17:24:22.627Z,101070.34
2023-01-31T17:29:25.988Z,101066.25
2023-01-31T17:34:27.550Z,101054.38
2023-01-31T17:39:29.126Z,101054.91
2023-01-31T17:44:31.058Z,101051.50
2023-01-31T17:49:34.914Z,101055.25
2023-01-31T17:54:36.501Z,101059.47
2023-01-31T17:59:38.185Z,101053.38
2023-01-31T18:04:39.768Z,101064.25
2023-01-31T18:09:41.332Z,101067.63
2023-01-31T18:14:43.084Z,101062.19
2023-01-31T18:19:44.593Z,101063.06
2023-01-31T18:24:46.211Z,101073.94
2023-01-31T18:29:47.725Z,101083.91
2023-01-31T18:34:49.446Z,101080.38
2023-01-31T18:39:52.659Z,101081.56
2023-01-31T18:44:54.253Z,101074.44
2023-01-31T18:49:55.905Z,101070.50
2023-01-31T18:54:57.534Z,101079.69
2023-01-31T18:59:59.072Z,101075.47
2023-01-31T19:05:01.830Z,101078.19
2023-01-31T19:10:04.101Z,101071.72
2023-01-31T19:15:07.732Z,101071.72
2023-01-31T19:20:10.247Z,101089.72
2023-01-31T19:25:11.892Z,101089.50
2023-01-31T19:30:14.067Z,101092.94
2023-01-31T19:35:15.714Z,101089.75
2023-01-31T19:40:17.480Z,101113.16
2023-01-31T19:45:22.804Z,101121.63
2023-01-31T19:50:24.572Z,101113.47
2023-01-31T19:55:26.123Z,101109.59
2023-01-31T20:00:31.811Z,101116.72
2023-01-31T20:05:33.484Z,101114.00
2023-01-31T20:10:37.441Z,101113.66
2023-01-31T20:15:39.038Z,101123.38
2023-01-31T20:20:44.115Z,101139.97
2023-01-31T20:25:49.421Z,101131.66
2023-01-31T20:30:51.443Z,101152.84
2023-01-31T20:35:53.049Z,101162.00
2023-01-31T20:40:55.563Z,101161.66
2023-01-31T20:46:10.380Z,101176.91
2023-01-31T20:51:11.987Z,101163.50
2023-01-31T20:56:13.582Z,101153.00
2023-01-31T21:01:15.224Z,101126.72
2023-01-31T21:06:16.797Z,101120.59
2023-01-31T21:11:18.383Z,101118.59
2023-01-31T21:16:20.086Z,101110.13
2023-01-31T21:21:24.365Z,101110.31
2023-01-31T21:26:27.127Z,101117.41
2023-01-31T21:31:29.963Z,101144.53
2023-01-31T21:36:32.961Z,101140.66
2023-01-31T21:41:52.725Z,101137.59
2023-01-31T21:46:54.267Z,101135.25
2023-01-31T21:51:55.831Z,101128.78
2023-01-31T21:56:57.883Z,101138.47
2023-01-31T22:01:59.674Z,101152.88
2023-01-31T22:07:01.641Z,101150.66
2023-01-31T22:12:03.367Z,101151.84
2023-01-31T22:17:05.109Z,101156.44
2023-01-31T22:22:06.640Z,101149.81
2023-01-31T22:27:08.185Z,101149.47
2023-01-31T22:32:09.869Z,101154.03
2023-01-31T22:37:11.505Z,101145.91
2023-01-31T22:42:13.058Z,101154.22
2023-01-31T22:47:14.681Z,101156.59
2023-01-31T22:52:16.263Z,101159.31
2023-01-31T22:57:17.843Z,101149.81
2023-01-31T23:02:19.369Z,101137.44
2023-01-31T23:07:20.920Z,101132.16
2023-01-31T23:12:22.533Z,101131.28
2023-01-31T23:17:39.365Z,101134.53
2023-01-31T23:22:41.461Z,101126.41
2023-01-31T23:27:43.610Z,101122.16
2023-01-31T23:32:45.586Z,101120.66
2023-01-31T23:37:49.609Z,101114.03
2023-01-31T23:42:51.185Z,101101.66
2023-01-31T23:47:52.871Z,101102.00
2023-01-31T23:52:55.844Z,101092.69
2023-01-31T23:57:57.384Z,101083.34
